»·PEaware :: FDX258 KPHX-KAMA

FDX258 :: KPHX-KAMA

FLIGHT INFORMATION

Flight Status: Arrived
Operator:
Federal Express
More flights by this operator :: More flights under this callsign
Pilot: Brad M. (22842)
Aircraft: Unknown
(B77F)
More flights by this aircraft type
Origin: KPHX Phoenix Sky Harbor Intl
United States
Destination: KAMA Amarillo Intl
United States
More flights between these airports :: More routes between these airports
Route: BROAK1 MAXXO CNX TCC J78 PNH
File this flight plan on PilotEdge
Remarks:
Altitude:
(Current/Filed)
37,000ft
Speed:
(Current/Filed)
400kts
Departed: 17-Mar-19 04:12 PM
Arrived: 17-Mar-19 05:32 PM
Distance/Time
Traveled:
521nm/1:20
Distance/Time
To Go:
Arrived

Flight Plot

Page will automatically refresh every two minutes.

Flight plan parsing failed; only flown route is shown


Map Options




Map Legend


Flown Route
Filed Route
Departure Airport
Arrival Airport
Navaid (VOR, NDB)
Fix

Horizontal Profiles

Position Reports

Time Latitude Longitude Heading Altitude Ground
Speed
17-Mar-19 15:51 33.433559 -112.029206 269 1148ft 0kts
17-Mar-19 15:52 33.433559 -112.029206 269 1148ft 0kts
17-Mar-19 15:53 33.433559 -112.029206 269 1148ft 0kts
17-Mar-19 15:54 33.433559 -112.029206 269 1148ft 0kts
17-Mar-19 15:55 33.433559 -112.029206 269 1148ft 0kts
17-Mar-19 15:56 33.433559 -112.029206 269 1148ft 0kts
17-Mar-19 15:57 33.433559 -112.029206 269 1148ft 0kts
17-Mar-19 15:58 33.433559 -112.029206 269 1148ft 0kts
17-Mar-19 15:59 33.433559 -112.029206 269 1148ft 0kts
17-Mar-19 16:00 33.433559 -112.029206 269 1148ft 0kts
17-Mar-19 16:01 33.433559 -112.029206 269 1148ft 0kts
17-Mar-19 16:02 33.433559 -112.029206 269 1148ft 0kts
17-Mar-19 16:03 33.433559 -112.029206 269 1148ft 0kts
17-Mar-19 16:04 33.433559 -112.029025 269 1148ft 2kts
17-Mar-19 16:05 33.433560 -112.028249 269 1148ft 2kts
17-Mar-19 16:06 33.433560 -112.028131 269 1148ft 0kts
17-Mar-19 16:07 33.433560 -112.028131 269 1148ft 0kts
17-Mar-19 16:08 33.433526 -112.028333 244 1148ft 6kts
17-Mar-19 16:09 33.432796 -112.027138 118 1148ft 5kts
17-Mar-19 16:10 33.431709 -112.026991 182 1148ft 16kts
17-Mar-19 16:11 33.431030 -112.019485 89 1148ft 98kts
17-Mar-19 16:12 33.431519 -111.965924 87 2658ft 174kts
17-Mar-19 16:13 33.437039 -111.899176 82 5022ft 227kts
17-Mar-19 16:14 33.446996 -111.815139 81 7769ft 274kts
17-Mar-19 16:15 33.459735 -111.721779 80 10940ft 302kts
17-Mar-19 16:16 33.475441 -111.610987 80 13385ft 369kts
17-Mar-19 16:17 33.493751 -111.484178 80 16793ft 398kts
17-Mar-19 16:18 33.512451 -111.350117 80 20135ft 418kts
17-Mar-19 16:19 33.533820 -111.210013 75 22771ft 436kts
17-Mar-19 16:20 33.572163 -111.069089 70 25576ft 454kts
17-Mar-19 16:21 33.613486 -110.922475 71 28176ft 471kts
17-Mar-19 16:22 33.655760 -110.771082 71 30467ft 486kts
17-Mar-19 16:23 33.698564 -110.618051 71 32975ft 483kts
17-Mar-19 16:24 33.740595 -110.464291 71 34936ft 484kts
17-Mar-19 16:25 33.782712 -110.310201 71 36645ft 485kts
17-Mar-19 16:26 33.824933 -110.153990 71 37216ft 501kts
17-Mar-19 16:27 33.867382 -109.996115 71 37227ft 486kts
17-Mar-19 16:28 33.909350 -109.841660 71 37227ft 491kts
17-Mar-19 16:29 33.951374 -109.684910 71 37226ft 497kts
17-Mar-19 16:30 33.994775 -109.522787 71 37218ft 521kts
17-Mar-19 16:31 34.038877 -109.355365 71 37202ft 520kts
17-Mar-19 16:32 34.082462 -109.188635 71 37173ft 526kts
17-Mar-19 16:33 34.125793 -109.021798 71 37171ft 516kts
17-Mar-19 16:34 34.168948 -108.856609 71 37174ft 515kts
17-Mar-19 16:35 34.211821 -108.691498 71 37183ft 519kts
17-Mar-19 16:36 34.254615 -108.524226 72 37184ft 524kts
17-Mar-19 16:37 34.297918 -108.355254 71 37236ft 524kts
17-Mar-19 16:38 34.340608 -108.186524 72 37224ft 524kts
17-Mar-19 16:39 34.380183 -108.017032 81 37226ft 527kts
17-Mar-19 16:40 34.386642 -107.839847 89 37250ft 525kts
17-Mar-19 16:41 34.387740 -107.663043 89 37251ft 524kts
17-Mar-19 16:42 34.389685 -107.486441 89 37249ft 524kts
17-Mar-19 16:43 34.391181 -107.310677 89 37247ft 522kts
17-Mar-19 16:44 34.392303 -107.134447 89 37244ft 523kts
17-Mar-19 16:45 34.393484 -106.958281 89 37239ft 523kts
17-Mar-19 16:46 34.393849 -106.782028 90 37242ft 523kts
17-Mar-19 16:47 34.392379 -106.605938 92 37245ft 525kts
17-Mar-19 16:48 34.387378 -106.428619 92 37250ft 526kts
17-Mar-19 16:49 34.382777 -106.251607 91 37254ft 528kts
17-Mar-19 16:50 34.378460 -106.073941 92 37258ft 528kts
17-Mar-19 16:51 34.373726 -105.896096 92 37270ft 530kts
17-Mar-19 16:52 34.368969 -105.717341 88 37268ft 529kts
17-Mar-19 16:53 34.413108 -105.550036 60 37273ft 528kts
17-Mar-19 16:54 34.481288 -105.392971 62 37273ft 526kts
17-Mar-19 16:55 34.545226 -105.233631 63 37272ft 525kts
17-Mar-19 16:56 34.608968 -105.074265 63 37271ft 525kts
17-Mar-19 16:57 34.671562 -104.916357 63 36973ft 500kts
17-Mar-19 16:58 34.730685 -104.766465 63 35431ft 476kts
17-Mar-19 16:59 34.786933 -104.623219 63 33616ft 468kts
17-Mar-19 17:00 34.842025 -104.482310 64 32018ft 453kts
17-Mar-19 17:01 34.894971 -104.346316 64 30476ft 437kts
17-Mar-19 17:02 34.932571 -104.208265 78 28822ft 425kts
17-Mar-19 17:03 34.951914 -104.068226 80 27159ft 414kts
17-Mar-19 17:04 34.969454 -103.930816 80 25452ft 405kts
17-Mar-19 17:05 34.986462 -103.796899 80 24317ft 398kts
17-Mar-19 17:06 35.003301 -103.663208 80 24202ft 398kts
17-Mar-19 17:07 35.019810 -103.530980 80 23004ft 391kts
17-Mar-19 17:08 35.035940 -103.400643 80 21794ft 385kts
17-Mar-19 17:10 35.051650 -103.272534 80 20640ft 379kts
17-Mar-19 17:11 35.066984 -103.146350 80 19555ft 373kts
17-Mar-19 17:12 35.081982 -103.021861 80 18526ft 368kts
17-Mar-19 17:13 35.096659 -102.898968 80 17567ft 363kts
17-Mar-19 17:14 35.111004 -102.777808 80 17009ft 360kts
17-Mar-19 17:15 35.149441 -102.668011 56 16341ft 352kts
17-Mar-19 17:16 35.195160 -102.563312 66 15101ft 347kts
17-Mar-19 17:17 35.231175 -102.454874 66 13915ft 340kts
17-Mar-19 17:18 35.266485 -102.348755 66 12756ft 334kts
17-Mar-19 17:19 35.301529 -102.244332 66 11592ft 329kts
17-Mar-19 17:20 35.335835 -102.143923 66 10756ft 301kts
17-Mar-19 17:21 35.368814 -102.050426 67 9664ft 296kts
17-Mar-19 17:22 35.391127 -101.954126 76 8899ft 285kts
17-Mar-19 17:23 35.410308 -101.864416 76 8764ft 268kts
17-Mar-19 17:24 35.428620 -101.779171 76 8761ft 246kts
17-Mar-19 17:25 35.446063 -101.698795 76 8176ft 241kts
17-Mar-19 17:26 35.429959 -101.631759 161 6860ft 223kts
17-Mar-19 17:27 35.372719 -101.629116 182 6000ft 189kts
17-Mar-19 17:28 35.323567 -101.630034 182 5519ft 165kts
17-Mar-19 17:29 35.281685 -101.640106 212 5053ft 152kts
17-Mar-19 17:29 35.255316 -101.669159 224 4275ft 151kts
17-Mar-19 17:31 35.222323 -101.710975 225 3621ft 108kts
17-Mar-19 17:32 35.213337 -101.721476 142 3620ft 6kts
17-Mar-19 17:32 35.211465 -101.719323 135 3620ft 11kts
17-Mar-19 17:33 35.210349 -101.718312 136 3620ft 0kts

Navigation Log

Ident Type
Flight plan parsing failed, navigation log unavailable